createdAt,value
2022-09-27T00:01:16.230Z,17.65
2022-09-27T00:03:21.272Z,21.80
2022-09-27T00:05:26.392Z,16.70
2022-09-27T00:07:30.750Z,24.10
2022-09-27T00:09:36.264Z,21.13
2022-09-27T00:11:42.858Z,19.27
2022-09-27T00:13:47.567Z,19.13
2022-09-27T00:15:59.313Z,18.15
2022-09-27T00:18:03.911Z,17.65
2022-09-27T00:20:11.676Z,17.85
2022-09-27T00:22:16.213Z,17.23
2022-09-27T00:24:22.790Z,19.73
2022-09-27T00:26:28.312Z,22.08
2022-09-27T00:28:32.712Z,19.92
2022-09-27T00:30:37.306Z,19.33
2022-09-27T00:32:43.291Z,19.58
2022-09-27T00:34:47.822Z,20.20
2022-09-27T00:36:52.883Z,18.38
2022-09-27T00:38:59.990Z,18.42
2022-09-27T00:41:04.478Z,17.25
2022-09-27T00:43:18.025Z,22.63
2022-09-27T00:45:22.620Z,22.67
2022-09-27T00:47:31.788Z,19.55
2022-09-27T00:49:41.033Z,19.50
2022-09-27T00:51:47.867Z,21.57
2022-09-27T00:53:55.814Z,20.70
2022-09-27T00:56:03.761Z,19.23
2022-09-27T00:58:08.798Z,21.17
2022-09-27T01:00:15.922Z,21.55
2022-09-27T01:02:20.855Z,20.52
2022-09-27T01:04:28.467Z,19.13
2022-09-27T01:06:35.112Z,19.65
2022-09-27T01:08:41.807Z,20.27
2022-09-27T01:10:57.203Z,18.65
2022-09-27T01:13:13.698Z,18.08
2022-09-27T01:15:27.510Z,17.38
2022-09-27T01:17:42.218Z,22.65
2022-09-27T01:20:19.237Z,20.13
2022-09-27T01:22:30.333Z,21.63
2022-09-27T01:25:16.169Z,19.77
2022-09-27T01:27:41.267Z,21.13
2022-09-27T01:30:00.245Z,20.92
2022-09-27T01:32:11.562Z,21.92
2022-09-27T01:34:25.053Z,20.05
2022-09-27T01:36:39.811Z,22.48
2022-09-27T01:38:53.713Z,20.50
2022-09-27T01:41:06.413Z,17.65
2022-09-27T01:43:20.012Z,19.38
2022-09-27T01:45:29.753Z,18.70
2022-09-27T01:47:54.387Z,19.80
2022-09-27T01:50:22.777Z,19.33
2022-09-27T01:52:33.498Z,18.42
2022-09-27T01:54:44.575Z,20.50
2022-09-27T01:57:02.673Z,22.02
2022-09-27T01:59:15.381Z,20.50
2022-09-27T02:01:30.455Z,20.13
2022-09-27T02:03:41.844Z,23.10
2022-09-27T02:06:12.994Z,22.88
2022-09-27T02:08:41.928Z,23.08
2022-09-27T02:13:07.685Z,23.00
2022-09-27T02:15:15.523Z,28.67
2022-09-27T02:17:32.626Z,23.42
2022-09-27T02:19:53.508Z,22.55
2022-09-27T02:22:15.194Z,20.20
2022-09-27T02:24:25.981Z,23.38
2022-09-27T02:26:35.375Z,20.77
2022-09-27T02:28:44.537Z,23.80
2022-09-27T02:31:00.756Z,22.90
2022-09-27T02:33:10.426Z,20.42
2022-09-27T02:35:21.247Z,21.60
2022-09-27T02:37:26.000Z,20.63
2022-09-27T02:39:30.535Z,18.90
2022-09-27T02:41:40.009Z,21.55
2022-09-27T02:43:47.384Z,19.60
2022-09-27T02:46:02.697Z,19.63
2022-09-27T02:48:18.719Z,21.48
2022-09-27T02:50:42.369Z,19.48
2022-09-27T02:53:09.162Z,19.60
2022-09-27T02:55:28.624Z,22.77
2022-09-27T02:57:49.372Z,21.10
2022-09-27T03:00:19.488Z,19.80
2022-09-27T03:02:38.701Z,20.80
2022-09-27T03:05:14.704Z,22.35
2022-09-27T03:07:24.905Z,22.17
2022-09-27T03:09:31.782Z,20.30
2022-09-27T03:11:36.317Z,23.33
2022-09-27T03:14:06.883Z,24.70
2022-09-27T03:16:07.375Z,24.73
2022-09-27T03:18:32.133Z,26.00
2022-09-27T03:20:55.354Z,25.63
2022-09-27T03:23:03.863Z,24.88
2022-09-27T03:25:09.232Z,26.15
2022-09-27T03:27:16.645Z,28.15
2022-09-27T03:29:21.182Z,26.58
2022-09-27T03:31:32.006Z,23.73
2022-09-27T03:33:55.634Z,22.73
2022-09-27T03:36:00.516Z,20.73
2022-09-27T03:38:07.281Z,21.02
2022-09-27T03:40:13.159Z,21.30
2022-09-27T03:42:17.564Z,23.88
2022-09-27T03:44:26.577Z,21.63
2022-09-27T03:46:32.357Z,23.95
2022-09-27T03:48:36.812Z,21.60
2022-09-27T03:50:41.279Z,20.73
2022-09-27T03:52:46.512Z,21.60
2022-09-27T03:54:53.009Z,21.42
2022-09-27T03:56:57.496Z,21.42
2022-09-27T03:59:02.734Z,21.95
2022-09-27T04:01:17.185Z,21.92
2022-09-27T04:03:24.005Z,20.02
2022-09-27T04:05:46.553Z,19.80
2022-09-27T04:07:56.504Z,24.17
2022-09-27T04:10:02.812Z,19.98
2022-09-27T04:12:09.257Z,20.65
2022-09-27T04:14:14.196Z,19.38
2022-09-27T04:16:38.622Z,21.65
2022-09-27T04:19:09.619Z,21.27
2022-09-27T04:21:23.899Z,21.17
2022-09-27T04:23:30.410Z,24.73
2022-09-27T04:25:38.032Z,24.90
2022-09-27T04:27:52.317Z,22.30
2022-09-27T04:29:57.710Z,25.70
2022-09-27T04:32:22.122Z,28.70
2022-09-27T04:35:06.714Z,24.17
2022-09-27T04:37:11.803Z,21.33
2022-09-27T04:39:19.579Z,23.50
2022-09-27T04:41:28.076Z,24.77
2022-09-27T04:43:32.590Z,24.20
2022-09-27T04:45:37.290Z,23.73
2022-09-27T04:47:44.680Z,27.23
2022-09-27T04:49:50.001Z,22.80
2022-09-27T04:51:54.620Z,22.73
2022-09-27T04:54:00.502Z,26.40
2022-09-27T04:56:08.418Z,26.27
2022-09-27T04:58:15.117Z,24.58
2022-09-27T05:00:19.728Z,24.27
2022-09-27T05:02:28.704Z,23.80
2022-09-27T05:04:51.482Z,23.15
2022-09-27T05:06:58.625Z,24.17
2022-09-27T05:09:13.260Z,24.27
2022-09-27T05:11:25.518Z,26.67
2022-09-27T05:13:53.290Z,25.73
2022-09-27T05:16:05.049Z,25.05
2022-09-27T05:18:21.140Z,25.27
2022-09-27T05:20:44.806Z,28.38
2022-09-27T05:23:00.186Z,25.48
2022-09-27T05:25:05.039Z,22.95
2022-09-27T05:27:11.244Z,25.30
2022-09-27T05:29:17.832Z,24.40
2022-09-27T05:31:31.489Z,23.00
2022-09-27T05:33:36.112Z,31.25
2022-09-27T05:35:47.598Z,25.60
2022-09-27T05:37:55.679Z,22.95
2022-09-27T05:40:05.493Z,27.10
2022-09-27T05:42:22.749Z,25.30
2022-09-27T05:44:28.691Z,27.23
2022-09-27T05:46:39.239Z,28.90
2022-09-27T05:48:43.725Z,28.90
2022-09-27T05:50:49.020Z,27.30
2022-09-27T05:52:55.721Z,27.25
2022-09-27T05:55:01.476Z,27.98
2022-09-27T05:57:09.243Z,26.73
2022-09-27T05:59:21.381Z,28.65
2022-09-27T06:01:46.820Z,31.20
2022-09-27T06:04:09.816Z,27.88
2022-09-27T06:06:15.053Z,30.10
2022-09-27T06:08:25.840Z,27.67
2022-09-27T06:10:31.868Z,34.20
2022-09-27T06:12:37.958Z,28.77
2022-09-27T06:14:50.054Z,26.10
2022-09-27T06:17:09.283Z,29.50
2022-09-27T06:21:22.843Z,30.23
2022-09-27T06:23:34.091Z,27.08
2022-09-27T06:25:47.093Z,28.35
2022-09-27T06:27:57.147Z,30.02
2022-09-27T06:30:06.929Z,31.27
2022-09-27T06:32:31.913Z,26.10
2022-09-27T06:34:52.094Z,29.45
2022-09-27T06:36:57.521Z,24.55
2022-09-27T06:39:03.288Z,28.25
2022-09-27T06:41:17.943Z,25.77
2022-09-27T06:43:31.685Z,26.40
2022-09-27T06:45:52.467Z,25.52
2022-09-27T06:48:25.130Z,27.63
2022-09-27T06:50:44.945Z,27.10
2022-09-27T06:52:50.847Z,24.13
2022-09-27T06:54:57.605Z,26.63
2022-09-27T06:57:02.861Z,29.92
2022-09-27T06:59:25.147Z,28.38
2022-09-27T07:01:52.620Z,28.55
2022-09-27T07:04:37.518Z,25.40
2022-09-27T07:06:42.175Z,29.90
2022-09-27T07:08:56.692Z,27.60
2022-09-27T07:11:05.227Z,29.55
2022-09-27T07:13:11.248Z,32.85
2022-09-27T07:15:16.947Z,29.83
2022-09-27T07:17:21.862Z,29.67
2022-09-27T07:19:28.662Z,29.35
2022-09-27T07:21:35.769Z,30.58
2022-09-27T07:23:41.502Z,30.00
2022-09-27T07:25:48.099Z,29.17
2022-09-27T07:27:54.154Z,31.15
2022-09-27T07:29:58.972Z,27.67
2022-09-27T07:32:03.879Z,29.73
2022-09-27T07:34:09.227Z,28.77
2022-09-27T07:36:16.140Z,31.30
2022-09-27T07:38:25.213Z,30.58
2022-09-27T07:40:29.906Z,29.52
2022-09-27T07:42:35.242Z,27.48
2022-09-27T07:44:39.816Z,33.97
2022-09-27T07:47:09.409Z,26.48
2022-09-27T07:49:39.452Z,29.92
2022-09-27T07:52:02.910Z,31.65
2022-09-27T07:54:29.470Z,27.23
2022-09-27T07:56:51.930Z,29.05
2022-09-27T07:58:59.776Z,28.55
2022-09-27T08:01:04.376Z,28.77
2022-09-27T08:03:14.415Z,32.25
2022-09-27T08:05:19.485Z,27.92
2022-09-27T08:08:24.413Z,28.15
2022-09-27T08:10:33.344Z,26.25
2022-09-27T08:12:38.195Z,25.20
2022-09-27T08:14:48.399Z,26.27
2022-09-27T08:16:53.545Z,29.38
2022-09-27T08:19:06.949Z,27.05
2022-09-27T08:21:24.633Z,25.25
2022-09-27T08:23:47.974Z,28.63
2022-09-27T08:26:02.019Z,28.70
2022-09-27T08:28:18.336Z,24.08
2022-09-27T08:30:33.485Z,26.05
2022-09-27T08:32:39.671Z,22.67
2022-09-27T08:34:44.709Z,27.67
2022-09-27T08:36:49.695Z,23.75
2022-09-27T08:38:57.982Z,26.08
2022-09-27T08:41:14.303Z,28.70
2022-09-27T08:43:26.739Z,24.25
2022-09-27T08:45:35.102Z,29.13
2022-09-27T08:47:45.180Z,24.15
2022-09-27T08:49:54.534Z,24.25
2022-09-27T08:54:08.430Z,23.35
2022-09-27T08:56:21.307Z,26.08
2022-09-27T08:58:29.861Z,22.80
2022-09-27T09:00:35.543Z,25.45
2022-09-27T09:02:49.867Z,26.73
2022-09-27T09:04:58.731Z,21.77
2022-09-27T09:07:11.150Z,24.08
2022-09-27T09:09:28.400Z,22.60
2022-09-27T09:12:12.094Z,23.80
2022-09-27T09:14:34.991Z,20.70
2022-09-27T09:16:48.771Z,20.27
2022-09-27T09:19:09.784Z,20.90
2022-09-27T09:21:29.127Z,19.23
2022-09-27T09:24:04.924Z,21.63
2022-09-27T09:26:19.102Z,24.25
2022-09-27T09:28:40.008Z,22.42
2022-09-27T09:30:59.817Z,20.00
2022-09-27T09:33:17.697Z,22.17
2022-09-27T09:35:26.137Z,20.27
2022-09-27T09:37:39.130Z,19.88
2022-09-27T09:39:47.146Z,19.83
2022-09-27T09:42:03.757Z,17.23
2022-09-27T09:44:19.072Z,18.60
2022-09-27T09:46:27.688Z,18.73
2022-09-27T09:48:41.162Z,18.33
2022-09-27T09:50:49.698Z,19.45
2022-09-27T09:53:00.558Z,17.95
2022-09-27T09:55:09.491Z,16.25
2022-09-27T09:57:19.801Z,17.50
2022-09-27T09:59:30.903Z,16.38
2022-09-27T10:01:39.720Z,15.23
2022-09-27T10:03:44.363Z,16.38
2022-09-27T10:05:49.475Z,14.35
2022-09-27T10:07:57.103Z,16.02
2022-09-27T10:10:04.372Z,12.15
2022-09-27T10:12:31.833Z,15.05
2022-09-27T10:14:39.880Z,13.75
2022-09-27T10:16:48.956Z,13.80
2022-09-27T10:19:01.610Z,16.95
2022-09-27T10:21:11.769Z,15.43
2022-09-27T10:23:19.857Z,11.48
2022-09-27T10:25:52.443Z,12.00
2022-09-27T10:28:33.089Z,11.77
2022-09-27T10:30:39.815Z,13.52
2022-09-27T10:32:52.740Z,12.57
2022-09-27T10:35:35.399Z,16.77
2022-09-27T10:37:43.199Z,10.85
2022-09-27T10:39:53.784Z,13.40
2022-09-27T10:42:00.141Z,12.10
2022-09-27T10:44:25.341Z,12.05
2022-09-27T10:46:50.976Z,12.18
2022-09-27T10:49:21.177Z,12.00
2022-09-27T10:51:32.836Z,11.25
2022-09-27T10:53:38.465Z,12.02
2022-09-27T10:55:50.858Z,12.15
2022-09-27T10:57:57.370Z,12.48
2022-09-27T11:00:07.610Z,11.40
2022-09-27T11:04:37.745Z,13.25
2022-09-27T11:06:42.820Z,15.02
2022-09-27T11:08:50.612Z,12.35
2022-09-27T11:11:17.798Z,14.15
2022-09-27T11:13:22.331Z,15.25
2022-09-27T11:15:33.023Z,12.10
2022-09-27T11:17:47.465Z,13.23
2022-09-27T11:20:10.448Z,15.73
2022-09-27T11:22:27.865Z,11.05
2022-09-27T11:24:50.500Z,11.27
2022-09-27T11:27:11.003Z,11.48
2022-09-27T11:29:27.338Z,10.60
2022-09-27T11:32:06.858Z,10.32
2022-09-27T11:34:39.605Z,13.25
2022-09-27T11:37:01.388Z,13.65
2022-09-27T11:39:15.544Z,9.90
2022-09-27T11:41:40.330Z,14.52
2022-09-27T11:44:15.072Z,10.25
2022-09-27T11:46:31.924Z,11.60
2022-09-27T11:49:03.667Z,12.30
2022-09-27T11:51:26.742Z,10.82
2022-09-27T11:53:49.410Z,10.95
2022-09-27T11:56:05.338Z,12.80
2022-09-27T11:58:15.962Z,10.48
2022-09-27T12:00:24.627Z,10.52
2022-09-27T12:03:08.204Z,11.75
2022-09-27T12:07:45.482Z,13.13
2022-09-27T12:09:54.756Z,12.10
2022-09-27T12:12:04.872Z,10.77
2022-09-27T12:14:18.391Z,12.93
2022-09-27T12:16:25.707Z,13.82
2022-09-27T12:18:33.605Z,17.70
2022-09-27T12:20:44.883Z,13.68
2022-09-27T12:22:59.997Z,12.80
2022-09-27T12:25:28.277Z,11.77
2022-09-27T12:27:39.357Z,10.23
2022-09-27T12:29:47.498Z,12.27
2022-09-27T12:32:00.992Z,11.07
2022-09-27T12:34:19.578Z,12.98
2022-09-27T12:36:29.235Z,10.95
2022-09-27T12:38:41.825Z,12.05
2022-09-27T12:40:50.979Z,11.52
2022-09-27T12:43:01.973Z,14.35
2022-09-27T12:45:33.492Z,12.93
2022-09-27T12:47:56.367Z,15.45
2022-09-27T12:50:09.943Z,14.00
2022-09-27T12:52:25.840Z,13.27
2022-09-27T12:54:54.635Z,12.63
2022-09-27T12:57:04.850Z,11.57
2022-09-27T12:59:38.195Z,11.18
2022-09-27T13:02:14.294Z,12.35
2022-09-27T13:04:37.263Z,12.80
2022-09-27T13:07:03.620Z,14.85
2022-09-27T13:09:41.381Z,14.27
2022-09-27T13:11:55.344Z,12.40
2022-09-27T13:14:01.789Z,13.02
2022-09-27T13:16:07.983Z,11.95
2022-09-27T13:18:34.803Z,14.20
2022-09-27T13:20:48.421Z,10.95
2022-09-27T13:23:59.130Z,13.10
2022-09-27T13:26:24.451Z,12.35
2022-09-27T13:28:38.278Z,13.27
2022-09-27T13:30:50.134Z,13.68
2022-09-27T13:33:33.110Z,18.77
2022-09-27T13:35:40.469Z,14.18
2022-09-27T13:37:59.737Z,15.85
2022-09-27T13:40:36.021Z,14.55
2022-09-27T13:43:27.598Z,13.55
2022-09-27T13:45:44.288Z,15.68
2022-09-27T13:47:51.533Z,13.43
2022-09-27T13:50:21.520Z,16.25
2022-09-27T13:52:35.942Z,13.32
2022-09-27T13:54:53.601Z,15.60
2022-09-27T13:57:02.045Z,15.52
2022-09-27T13:59:12.666Z,17.30
2022-09-27T14:01:30.186Z,14.35
2022-09-27T14:03:38.696Z,11.75
2022-09-27T14:05:50.545Z,16.05
2022-09-27T14:07:59.983Z,13.95
2022-09-27T14:10:09.055Z,14.02
2022-09-27T14:12:19.816Z,11.52
2022-09-27T14:14:27.859Z,15.43
2022-09-27T14:16:42.127Z,10.90
2022-09-27T14:18:50.879Z,12.10
2022-09-27T14:21:18.534Z,12.13
2022-09-27T14:23:44.953Z,11.00
2022-09-27T14:25:51.206Z,12.43
2022-09-27T14:27:58.674Z,13.23
2022-09-27T14:30:17.368Z,12.65
2022-09-27T14:32:31.766Z,14.60
2022-09-27T14:34:40.874Z,14.82
2022-09-27T14:37:04.831Z,14.35
2022-09-27T14:39:17.875Z,10.50
2022-09-27T14:41:25.881Z,17.02
2022-09-27T14:43:32.198Z,14.45
2022-09-27T14:45:40.755Z,12.50
2022-09-27T14:47:51.426Z,15.95
2022-09-27T14:49:59.897Z,13.98
2022-09-27T14:52:04.190Z,15.75
2022-09-27T14:54:21.350Z,13.32
2022-09-27T14:56:27.993Z,10.95
2022-09-27T14:58:46.763Z,17.20
2022-09-27T15:03:01.068Z,13.60
2022-09-27T15:05:05.965Z,13.30
2022-09-27T15:07:10.353Z,15.10
2022-09-27T15:09:17.356Z,14.55
2022-09-27T15:11:22.207Z,11.40
2022-09-27T15:13:28.012Z,13.07
2022-09-27T15:15:35.248Z,12.52
2022-09-27T15:17:44.887Z,13.07
2022-09-27T15:20:01.847Z,11.90
2022-09-27T15:22:38.708Z,14.52
2022-09-27T15:24:47.074Z,12.73
2022-09-27T15:26:54.131Z,13.40
2022-09-27T15:28:58.542Z,14.45
2022-09-27T15:31:03.049Z,16.90
2022-09-27T15:33:18.128Z,14.25
2022-09-27T15:35:30.223Z,12.80
2022-09-27T15:37:37.904Z,15.98
2022-09-27T15:39:43.173Z,12.77
2022-09-27T15:42:05.172Z,14.52
2022-09-27T15:44:36.618Z,13.82
2022-09-27T15:46:43.639Z,14.43
2022-09-27T15:48:48.124Z,11.63
2022-09-27T15:50:54.469Z,11.15
2022-09-27T15:52:59.101Z,11.38
2022-09-27T15:55:03.469Z,11.55
2022-09-27T15:57:08.026Z,12.85
2022-09-27T15:59:19.868Z,17.83
2022-09-27T16:01:24.313Z,14.70
2022-09-27T16:03:28.755Z,19.05
2022-09-27T16:05:33.366Z,13.80
2022-09-27T16:07:39.491Z,12.15
2022-09-27T16:09:45.402Z,12.30
2022-09-27T16:11:51.176Z,12.50
2022-09-27T16:13:56.405Z,11.85
2022-09-27T16:16:01.162Z,15.93
2022-09-27T16:18:06.000Z,21.13
2022-09-27T16:20:18.808Z,18.30
2022-09-27T16:22:23.133Z,16.23
2022-09-27T16:24:29.070Z,13.25
2022-09-27T16:26:34.231Z,12.30
2022-09-27T16:28:38.588Z,15.18
2022-09-27T16:30:42.936Z,20.92
2022-09-27T16:32:48.733Z,18.05
2022-09-27T16:34:53.212Z,14.40
2022-09-27T16:36:59.631Z,18.92
2022-09-27T16:39:10.387Z,16.58
2022-09-27T16:41:16.236Z,15.07
2022-09-27T16:43:20.930Z,13.50
2022-09-27T16:45:32.897Z,17.70
2022-09-27T16:47:37.488Z,18.00
2022-09-27T16:49:59.725Z,19.20
2022-09-27T16:52:05.090Z,22.58
2022-09-27T16:54:16.049Z,18.45
2022-09-27T16:56:23.090Z,18.73
2022-09-27T16:58:27.651Z,17.48
2022-09-27T17:00:33.431Z,19.88
2022-09-27T17:02:38.265Z,19.48
2022-09-27T17:04:42.770Z,20.85
2022-09-27T17:06:47.160Z,20.02
2022-09-27T17:08:51.699Z,22.25
2022-09-27T17:10:57.298Z,20.17
2022-09-27T17:13:03.527Z,19.00
2022-09-27T17:15:10.341Z,21.23
2022-09-27T17:17:14.741Z,28.77
2022-09-27T17:19:19.647Z,34.33
2022-09-27T17:21:24.129Z,34.80
2022-09-27T17:23:28.801Z,26.85
2022-09-27T17:25:33.636Z,28.17
2022-09-27T17:27:38.269Z,23.42
2022-09-27T17:29:44.027Z,23.13
2022-09-27T17:31:48.459Z,21.33
2022-09-27T17:33:57.591Z,20.20
2022-09-27T17:36:08.595Z,21.75
2022-09-27T17:38:14.068Z,20.45
2022-09-27T17:40:18.941Z,22.45
2022-09-27T17:42:25.176Z,21.35
2022-09-27T17:44:29.689Z,22.45
2022-09-27T17:46:37.141Z,22.88
2022-09-27T17:48:58.800Z,19.85
2022-09-27T17:51:03.896Z,16.02
2022-09-27T17:53:08.775Z,23.05
2022-09-27T17:55:14.875Z,24.73
2022-09-27T17:57:19.256Z,25.58
2022-09-27T17:59:23.870Z,21.77
2022-09-27T18:01:28.708Z,29.65
2022-09-27T18:03:35.714Z,21.40
2022-09-27T18:05:40.013Z,25.00
2022-09-27T18:07:44.347Z,25.13
2022-09-27T18:09:49.802Z,22.25
2022-09-27T18:11:54.122Z,21.90
2022-09-27T18:14:00.333Z,20.33
2022-09-27T18:16:05.719Z,18.70
2022-09-27T18:18:10.104Z,19.30
2022-09-27T18:20:15.828Z,17.05
2022-09-27T18:22:20.504Z,17.60
2022-09-27T18:24:26.325Z,17.38
2022-09-27T18:26:30.555Z,14.77
2022-09-27T18:28:35.027Z,17.08
2022-09-27T18:30:39.251Z,13.02
2022-09-27T18:32:43.657Z,13.20
2022-09-27T18:34:48.376Z,13.70
2022-09-27T18:36:54.534Z,14.95
2022-09-27T18:39:00.802Z,15.43
2022-09-27T18:41:10.277Z,14.40
2022-09-27T18:43:14.682Z,14.57
2022-09-27T18:45:19.343Z,16.27
2022-09-27T18:47:24.031Z,15.63
2022-09-27T18:49:33.157Z,14.30
2022-09-27T18:51:42.084Z,15.30
2022-09-27T18:53:48.656Z,16.02
2022-09-27T18:55:54.171Z,20.55
2022-09-27T18:57:58.542Z,18.45
2022-09-27T19:00:04.620Z,18.10
2022-09-27T19:02:11.968Z,17.25
2022-09-27T19:04:23.684Z,17.33
2022-09-27T19:06:28.893Z,14.70
2022-09-27T19:08:34.040Z,17.85
2022-09-27T19:10:40.477Z,17.92
2022-09-27T19:12:45.067Z,17.75
2022-09-27T19:14:49.479Z,18.60
2022-09-27T19:16:54.059Z,18.42
2022-09-27T19:18:58.620Z,13.27
2022-09-27T19:21:10.283Z,14.48
2022-09-27T19:23:14.874Z,15.77
2022-09-27T19:25:19.242Z,14.93
2022-09-27T19:27:25.090Z,17.50
2022-09-27T19:29:29.827Z,12.18
2022-09-27T19:31:36.086Z,11.10
2022-09-27T19:33:40.594Z,10.50
2022-09-27T19:35:45.368Z,11.00
2022-09-27T19:37:50.128Z,12.40
2022-09-27T19:39:55.633Z,11.50
2022-09-27T19:42:00.120Z,10.20
2022-09-27T19:44:06.904Z,10.20
2022-09-27T19:46:14.104Z,8.27
2022-09-27T19:48:18.641Z,10.50
2022-09-27T19:50:24.007Z,7.68
2022-09-27T19:52:28.952Z,10.07
2022-09-27T19:54:35.473Z,9.38
2022-09-27T19:56:39.888Z,5.45
2022-09-27T19:58:45.374Z,10.30
2022-09-27T20:00:58.914Z,6.47
2022-09-27T20:03:03.430Z,8.75
2022-09-27T20:05:08.621Z,7.45
2022-09-27T20:07:13.362Z,6.38
2022-09-27T20:09:17.733Z,5.32
2022-09-27T20:11:23.770Z,6.35
2022-09-27T20:13:30.352Z,8.23
2022-09-27T20:15:35.225Z,5.30
2022-09-27T20:17:41.461Z,6.97
2022-09-27T20:19:46.466Z,6.90
2022-09-27T20:21:51.582Z,7.90
2022-09-27T20:23:58.113Z,7.60
2022-09-27T20:26:03.268Z,4.82
2022-09-27T20:28:08.160Z,6.63
2022-09-27T20:30:19.559Z,6.43
2022-09-27T20:32:28.068Z,6.88
2022-09-27T20:34:34.258Z,6.30
2022-09-27T20:36:40.289Z,7.60
2022-09-27T20:38:46.286Z,6.68
2022-09-27T20:41:00.263Z,11.70
2022-09-27T20:43:04.715Z,11.50
2022-09-27T20:45:09.675Z,5.10
2022-09-27T20:47:14.195Z,5.10
2022-09-27T20:49:19.839Z,9.23
2022-09-27T20:51:27.251Z,5.75
2022-09-27T20:53:32.067Z,9.05
2022-09-27T20:55:36.529Z,6.38
2022-09-27T20:57:56.829Z,8.40
2022-09-27T21:00:01.740Z,5.25
2022-09-27T21:02:10.765Z,8.20
2022-09-27T21:04:19.281Z,7.13
2022-09-27T21:06:27.446Z,7.32
2022-09-27T21:08:33.290Z,5.55
2022-09-27T21:10:37.758Z,8.30
2022-09-27T21:13:06.014Z,6.97
2022-09-27T21:15:33.126Z,10.90
2022-09-27T21:17:37.808Z,7.45
2022-09-27T21:19:42.704Z,8.32
2022-09-27T21:21:48.640Z,5.47
2022-09-27T21:23:56.009Z,8.98
2022-09-27T21:26:08.004Z,5.85
2022-09-27T21:28:12.874Z,5.70
2022-09-27T21:30:17.296Z,5.05
2022-09-27T21:32:21.770Z,9.77
2022-09-27T21:34:26.135Z,8.20
2022-09-27T21:36:32.373Z,7.93
2022-09-27T21:38:38.531Z,5.90
2022-09-27T21:40:43.202Z,3.30
2022-09-27T21:42:53.352Z,7.60
2022-09-27T21:45:01.647Z,5.28
2022-09-27T21:47:08.776Z,8.73
2022-09-27T21:49:13.398Z,6.05
2022-09-27T21:51:19.542Z,8.05
2022-09-27T21:53:24.681Z,7.50
2022-09-27T21:55:30.762Z,9.73
2022-09-27T21:57:35.446Z,6.65
2022-09-27T21:59:40.098Z,4.50
2022-09-27T22:01:45.863Z,4.93
2022-09-27T22:03:51.626Z,5.78
2022-09-27T22:05:55.940Z,7.15
2022-09-27T22:08:02.452Z,4.50
2022-09-27T22:10:08.014Z,5.50
2022-09-27T22:12:14.107Z,4.90
2022-09-27T22:14:20.077Z,6.07
2022-09-27T22:16:27.092Z,5.82
2022-09-27T22:18:31.642Z,6.43
2022-09-27T22:20:36.245Z,6.15
2022-09-27T22:22:40.596Z,6.00
2022-09-27T22:24:44.780Z,4.85
2022-09-27T22:26:52.005Z,7.35
2022-09-27T22:28:59.596Z,6.50
2022-09-27T22:31:06.203Z,6.70
2022-09-27T22:33:10.580Z,6.15
2022-09-27T22:35:15.218Z,4.80
2022-09-27T22:37:19.533Z,5.13
2022-09-27T22:39:26.337Z,5.97
2022-09-27T22:41:31.056Z,7.05
2022-09-27T22:43:35.567Z,4.65
2022-09-27T22:45:41.711Z,4.05
2022-09-27T22:47:46.181Z,4.47
2022-09-27T22:49:50.943Z,4.68
2022-09-27T22:51:55.509Z,7.68
2022-09-27T22:54:00.127Z,4.47
2022-09-27T22:56:08.989Z,7.60
2022-09-27T22:58:13.247Z,5.80
2022-09-27T23:00:17.681Z,5.35
2022-09-27T23:02:24.044Z,6.47
2022-09-27T23:04:28.555Z,3.85
2022-09-27T23:06:33.556Z,8.75
2022-09-27T23:08:39.857Z,3.58
2022-09-27T23:10:44.325Z,7.63
2022-09-27T23:12:49.072Z,5.38
2022-09-27T23:14:53.376Z,11.90
2022-09-27T23:16:58.814Z,4.47
2022-09-27T23:19:05.992Z,8.55
2022-09-27T23:21:13.502Z,8.45
2022-09-27T23:23:18.101Z,5.60
2022-09-27T23:25:23.872Z,6.15
2022-09-27T23:27:45.365Z,6.03
2022-09-27T23:29:49.589Z,5.00
2022-09-27T23:31:53.972Z,10.68
2022-09-27T23:34:00.092Z,5.93
2022-09-27T23:36:07.038Z,7.32
2022-09-27T23:38:11.339Z,8.27
2022-09-27T23:40:16.011Z,8.65
2022-09-27T23:42:20.692Z,10.82
2022-09-27T23:44:25.380Z,9.25
2022-09-27T23:46:29.752Z,7.70
2022-09-27T23:48:35.550Z,8.75
2022-09-27T23:50:40.629Z,7.65
2022-09-27T23:52:47.194Z,7.80
2022-09-27T23:54:51.577Z,6.80
2022-09-27T23:56:56.072Z,6.65
2022-09-27T23:59:01.295Z,5.90
